createdAt,value
2022-10-19T00:01:30.036Z,8.60
2022-10-19T00:03:57.560Z,7.73
2022-10-19T00:06:27.707Z,7.37
2022-10-19T00:08:55.552Z,7.67
2022-10-19T00:11:23.618Z,6.40
2022-10-19T00:13:51.128Z,6.70
2022-10-19T00:16:19.261Z,5.57
2022-10-19T00:18:47.023Z,5.57
2022-10-19T00:21:15.431Z,4.53
2022-10-19T00:23:44.373Z,5.03
2022-10-19T00:26:12.218Z,4.57
2022-10-19T00:28:39.766Z,4.43
2022-10-19T00:31:08.179Z,3.83
2022-10-19T00:33:35.599Z,3.57
2022-10-19T00:36:03.016Z,3.80
2022-10-19T00:38:30.493Z,3.80
2022-10-19T00:40:59.265Z,3.47
2022-10-19T00:43:28.011Z,2.70
2022-10-19T00:45:55.436Z,3.50
2022-10-19T00:48:26.020Z,2.80
2022-10-19T00:50:55.057Z,3.13
2022-10-19T00:53:22.860Z,3.57
2022-10-19T00:55:50.288Z,2.83
2022-10-19T00:58:19.073Z,3.33
2022-10-19T01:00:46.769Z,3.10
2022-10-19T01:03:14.742Z,2.90
2022-10-19T01:05:42.235Z,3.33
2022-10-19T01:08:09.779Z,3.00
2022-10-19T01:10:43.317Z,5.17
2022-10-19T01:13:15.859Z,3.90
2022-10-19T01:15:47.811Z,3.40
2022-10-19T01:18:20.412Z,4.30
2022-10-19T01:20:56.826Z,3.90
2022-10-19T01:23:35.842Z,3.37
2022-10-19T01:26:07.519Z,3.93
2022-10-19T01:28:45.910Z,4.87
2022-10-19T01:31:19.394Z,5.37
2022-10-19T01:33:48.419Z,6.30
2022-10-19T01:36:22.006Z,5.27
2022-10-19T01:38:53.683Z,7.00
2022-10-19T01:41:22.687Z,5.27
2022-10-19T01:43:54.112Z,10.37
2022-10-19T01:46:28.282Z,5.20
2022-10-19T01:48:57.892Z,8.77
2022-10-19T01:51:28.007Z,9.00
2022-10-19T01:53:57.452Z,28.13
2022-10-19T01:56:26.282Z,18.80
2022-10-19T01:58:55.067Z,13.50
2022-10-19T02:01:25.158Z,17.53
2022-10-19T02:03:53.127Z,50.93
2022-10-19T02:06:21.175Z,20.20
2022-10-19T02:08:49.511Z,21.60
2022-10-19T02:11:17.724Z,45.30
2022-10-19T02:13:46.014Z,19.80
2022-10-19T02:16:15.469Z,21.00
2022-10-19T02:18:46.565Z,25.43
2022-10-19T02:21:14.249Z,25.13
2022-10-19T02:23:41.695Z,17.83
2022-10-19T02:26:09.331Z,22.07
2022-10-19T02:28:37.162Z,25.60
2022-10-19T02:31:04.923Z,21.80
2022-10-19T02:33:32.898Z,21.17
2022-10-19T02:36:01.722Z,17.83
2022-10-19T02:38:29.358Z,18.43
2022-10-19T02:41:01.119Z,17.83
2022-10-19T02:43:29.540Z,14.17
2022-10-19T02:46:01.249Z,14.70
2022-10-19T02:48:30.662Z,15.07
2022-10-19T02:50:58.039Z,15.10
2022-10-19T02:53:26.799Z,14.90
2022-10-19T02:55:54.254Z,11.53
2022-10-19T02:58:21.749Z,14.87
2022-10-19T03:00:49.198Z,14.83
2022-10-19T03:03:16.680Z,12.27
2022-10-19T03:05:44.111Z,13.60
2022-10-19T03:08:11.542Z,9.63
2022-10-19T03:10:40.289Z,10.77
2022-10-19T03:13:07.708Z,15.57
2022-10-19T03:15:35.122Z,10.80
2022-10-19T03:18:02.569Z,11.73
2022-10-19T03:20:29.930Z,12.17
2022-10-19T03:22:57.362Z,11.93
2022-10-19T03:25:24.777Z,13.87
2022-10-19T03:27:53.505Z,10.63
2022-10-19T03:30:20.914Z,13.83
2022-10-19T03:32:48.390Z,19.73
2022-10-19T03:35:15.794Z,14.13
2022-10-19T03:37:43.161Z,12.83
2022-10-19T03:40:11.110Z,15.10
2022-10-19T03:42:38.537Z,14.43
2022-10-19T03:45:08.172Z,13.87
2022-10-19T03:47:35.921Z,17.33
2022-10-19T03:50:05.695Z,17.60
2022-10-19T03:52:33.079Z,15.87
2022-10-19T03:55:00.475Z,18.37
2022-10-19T03:57:27.853Z,20.60
2022-10-19T03:59:55.234Z,16.80
2022-10-19T04:02:23.993Z,15.60
2022-10-19T04:04:51.414Z,18.17
2022-10-19T04:07:18.830Z,15.87
2022-10-19T04:09:46.268Z,15.00
2022-10-19T04:12:13.646Z,17.73
2022-10-19T04:14:56.206Z,16.43
2022-10-19T04:17:26.526Z,16.73
2022-10-19T04:19:53.965Z,15.20
2022-10-19T04:22:21.320Z,15.83
2022-10-19T04:24:48.762Z,20.73
2022-10-19T04:27:16.153Z,24.93
2022-10-19T04:29:43.607Z,24.27
2022-10-19T04:32:10.988Z,28.00
2022-10-19T04:34:40.170Z,33.43
2022-10-19T04:37:07.719Z,29.10
2022-10-19T04:39:39.240Z,27.27
2022-10-19T04:42:06.681Z,15.83
2022-10-19T04:44:34.065Z,13.10
2022-10-19T04:47:01.517Z,15.30
2022-10-19T04:49:28.938Z,16.00
2022-10-19T04:51:57.666Z,14.77
2022-10-19T04:54:25.288Z,10.73
2022-10-19T04:56:53.779Z,11.87
2022-10-19T04:59:21.189Z,18.23
2022-10-19T05:01:48.594Z,15.23
2022-10-19T05:04:16.016Z,27.53
2022-10-19T05:06:43.462Z,73.93
2022-10-19T05:09:12.426Z,33.80
2022-10-19T05:11:39.807Z,39.70
2022-10-19T05:14:07.325Z,63.67
2022-10-19T05:16:34.809Z,40.07
2022-10-19T05:19:02.392Z,41.97
2022-10-19T05:21:30.124Z,88.63
2022-10-19T05:23:58.434Z,30.63
2022-10-19T05:26:27.975Z,9.83
2022-10-19T05:28:56.898Z,16.17
2022-10-19T05:31:25.717Z,25.57
2022-10-19T05:33:53.325Z,13.20
2022-10-19T05:36:22.651Z,13.30
2022-10-19T05:38:52.655Z,34.53
2022-10-19T05:41:20.409Z,50.53
2022-10-19T05:43:53.505Z,27.57
2022-10-19T05:46:21.091Z,40.33
2022-10-19T05:48:48.979Z,17.07
2022-10-19T05:51:17.633Z,16.53
2022-10-19T05:53:45.969Z,5.57
2022-10-19T05:56:16.351Z,14.10
2022-10-19T05:58:43.972Z,16.17
2022-10-19T06:01:12.927Z,13.60
2022-10-19T06:03:40.671Z,13.13
2022-10-19T06:06:08.864Z,8.30
2022-10-19T06:08:36.737Z,6.40
2022-10-19T06:11:08.429Z,6.37
2022-10-19T06:13:35.862Z,4.83
2022-10-19T06:16:03.437Z,8.17
2022-10-19T06:18:32.227Z,10.87
2022-10-19T06:21:02.431Z,6.53
2022-10-19T06:23:29.893Z,6.77
2022-10-19T06:25:57.333Z,5.20
2022-10-19T06:28:24.764Z,4.80
2022-10-19T06:30:52.204Z,6.97
2022-10-19T06:33:19.722Z,4.07
2022-10-19T06:35:48.617Z,4.70
2022-10-19T06:38:16.010Z,3.97
2022-10-19T06:40:43.416Z,3.40
2022-10-19T06:43:10.819Z,3.97
2022-10-19T06:45:38.435Z,3.93
2022-10-19T06:48:07.704Z,2.97
2022-10-19T06:50:35.443Z,4.10
2022-10-19T06:53:04.213Z,6.60
2022-10-19T06:55:31.643Z,4.43
2022-10-19T06:58:01.627Z,3.60
2022-10-19T07:00:29.200Z,12.63
2022-10-19T07:02:56.813Z,11.17
2022-10-19T07:05:24.268Z,4.90
2022-10-19T07:07:51.812Z,4.13
2022-10-19T07:10:20.687Z,5.60
2022-10-19T07:12:48.269Z,8.17
2022-10-19T07:15:15.707Z,5.53
2022-10-19T07:17:43.086Z,8.03
2022-10-19T07:20:11.620Z,5.67
2022-10-19T07:22:39.038Z,2.80
2022-10-19T07:25:06.763Z,3.40
2022-10-19T07:27:40.039Z,4.23
2022-10-19T07:30:08.220Z,3.83
2022-10-19T07:32:35.659Z,5.00
2022-10-19T07:35:03.039Z,3.90
2022-10-19T07:37:30.423Z,4.87
2022-10-19T07:39:57.863Z,3.33
2022-10-19T07:42:25.440Z,3.97
2022-10-19T07:44:54.210Z,4.97
2022-10-19T07:47:21.603Z,3.67
2022-10-19T07:49:49.012Z,6.80
2022-10-19T07:52:16.822Z,5.73
2022-10-19T07:54:44.236Z,5.67
2022-10-19T07:57:12.514Z,3.97
2022-10-19T07:59:39.864Z,3.97
2022-10-19T08:02:14.419Z,7.23
2022-10-19T08:05:00.323Z,8.23
2022-10-19T08:07:29.295Z,3.93
2022-10-19T08:09:56.761Z,5.13
2022-10-19T08:12:24.286Z,4.50
2022-10-19T08:14:51.688Z,6.07
2022-10-19T08:17:20.482Z,2.87
2022-10-19T08:19:47.918Z,5.53
2022-10-19T08:22:15.322Z,3.17
2022-10-19T08:24:42.837Z,6.13
2022-10-19T08:27:10.397Z,4.47
2022-10-19T08:29:37.807Z,3.50
2022-10-19T08:32:05.352Z,4.60
2022-10-19T08:34:34.240Z,2.60
2022-10-19T08:37:10.091Z,3.93
2022-10-19T08:39:47.459Z,4.20
2022-10-19T08:42:17.202Z,8.10
2022-10-19T08:45:02.440Z,4.50
2022-10-19T08:47:37.936Z,4.77
2022-10-19T08:50:15.564Z,3.70
2022-10-19T08:52:43.279Z,4.53
2022-10-19T08:55:18.028Z,2.73
2022-10-19T08:57:50.748Z,4.57
2022-10-19T09:00:21.888Z,7.00
2022-10-19T09:02:54.781Z,3.63
2022-10-19T09:05:29.997Z,4.03
2022-10-19T09:07:57.457Z,4.53
2022-10-19T09:10:26.413Z,7.50
2022-10-19T09:12:58.702Z,3.80
2022-10-19T09:15:27.813Z,6.23
2022-10-19T09:17:55.668Z,4.13
2022-10-19T09:20:27.630Z,5.67
2022-10-19T09:22:59.966Z,7.40
2022-10-19T09:25:29.245Z,5.27
2022-10-19T09:28:03.149Z,5.40
2022-10-19T09:30:31.290Z,6.33
2022-10-19T09:33:00.328Z,6.37
2022-10-19T09:35:30.269Z,6.17
2022-10-19T09:37:58.162Z,6.97
2022-10-19T09:40:26.916Z,7.67
2022-10-19T09:42:58.862Z,6.33
2022-10-19T09:45:32.743Z,4.90
2022-10-19T09:48:10.034Z,9.87
2022-10-19T09:50:43.850Z,7.10
2022-10-19T09:53:22.048Z,6.70
2022-10-19T09:55:52.398Z,8.87
2022-10-19T09:58:20.590Z,6.07
2022-10-19T10:00:50.497Z,7.37
2022-10-19T10:03:28.510Z,7.83
2022-10-19T10:05:58.650Z,10.77
2022-10-19T10:08:27.990Z,8.97
2022-10-19T10:10:58.460Z,9.30
2022-10-19T10:13:27.619Z,9.07
2022-10-19T10:15:57.414Z,10.50
2022-10-19T10:18:25.761Z,10.40
2022-10-19T10:21:06.901Z,11.73
2022-10-19T10:23:36.523Z,8.80
2022-10-19T10:26:05.016Z,9.90
2022-10-19T10:28:32.846Z,10.17
2022-10-19T10:31:01.719Z,8.90
2022-10-19T10:33:44.385Z,10.77
2022-10-19T10:36:14.272Z,8.83
2022-10-19T10:38:43.852Z,11.37
2022-10-19T10:41:13.402Z,10.17
2022-10-19T10:46:26.586Z,13.03
2022-10-19T10:48:56.050Z,9.70
2022-10-19T10:51:29.891Z,9.60
2022-10-19T10:54:10.036Z,8.20
2022-10-19T10:56:40.660Z,11.27
2022-10-19T10:59:13.763Z,11.33
2022-10-19T11:01:42.114Z,10.10
2022-10-19T11:04:12.203Z,9.67
2022-10-19T11:06:44.623Z,11.23
2022-10-19T11:09:16.017Z,13.83
2022-10-19T11:11:45.814Z,10.97
2022-10-19T11:14:23.475Z,10.67
2022-10-19T11:16:53.395Z,11.50
2022-10-19T11:19:23.428Z,10.87
2022-10-19T11:21:57.247Z,11.70
2022-10-19T11:27:08.729Z,11.37
2022-10-19T11:29:44.213Z,11.87
2022-10-19T11:32:16.843Z,7.83
2022-10-19T11:34:50.893Z,8.40
2022-10-19T11:37:24.119Z,8.20
2022-10-19T11:39:59.268Z,9.87
2022-10-19T11:42:32.576Z,7.00
2022-10-19T11:45:05.476Z,10.03
2022-10-19T11:47:40.014Z,8.83
2022-10-19T11:50:12.275Z,8.37
2022-10-19T11:52:46.501Z,10.73
2022-10-19T11:55:20.630Z,9.43
2022-10-19T11:57:52.554Z,7.80
2022-10-19T12:00:38.235Z,7.97
2022-10-19T12:03:14.874Z,8.57
2022-10-19T12:05:46.918Z,6.17
2022-10-19T12:08:31.046Z,6.23
2022-10-19T12:11:02.183Z,8.17
2022-10-19T12:13:32.644Z,7.83
2022-10-19T12:16:00.604Z,8.23
2022-10-19T12:18:33.178Z,6.07
2022-10-19T12:21:03.256Z,11.30
2022-10-19T12:23:34.031Z,6.13
2022-10-19T12:26:03.133Z,6.43
2022-10-19T12:28:32.060Z,6.23
2022-10-19T12:31:00.526Z,9.20
2022-10-19T12:33:30.462Z,6.10
2022-10-19T12:36:06.603Z,5.13
2022-10-19T12:38:45.139Z,5.70
2022-10-19T12:41:19.086Z,6.83
2022-10-19T12:43:57.192Z,4.67
2022-10-19T12:46:31.208Z,4.50
2022-10-19T12:49:16.281Z,5.43
2022-10-19T12:51:47.253Z,6.22
2022-10-19T12:54:16.274Z,4.85
2022-10-19T12:56:51.555Z,4.25
2022-10-19T12:59:24.049Z,6.45
2022-10-19T13:01:51.949Z,7.40
2022-10-19T13:04:21.530Z,4.18
2022-10-19T13:06:50.446Z,4.22
2022-10-19T13:09:24.933Z,4.07
2022-10-19T13:12:10.850Z,3.60
2022-10-19T13:14:45.837Z,4.43
2022-10-19T13:17:34.970Z,3.47
2022-10-19T13:20:21.082Z,5.55
2022-10-19T13:22:49.289Z,5.60
2022-10-19T13:25:26.968Z,3.30
2022-10-19T13:27:55.887Z,4.65
2022-10-19T13:30:42.314Z,4.23
2022-10-19T13:33:28.625Z,4.05
2022-10-19T13:36:08.141Z,4.28
2022-10-19T13:41:15.170Z,4.37
2022-10-19T13:43:52.141Z,4.90
2022-10-19T13:46:21.226Z,5.60
2022-10-19T13:48:58.140Z,3.87
2022-10-19T13:51:30.365Z,3.57
2022-10-19T13:54:03.018Z,4.23
2022-10-19T13:59:32.442Z,3.90
2022-10-19T14:02:11.216Z,3.50
2022-10-19T14:04:42.940Z,5.47
2022-10-19T14:07:14.564Z,4.37
2022-10-19T14:10:01.290Z,6.17
2022-10-19T14:12:31.381Z,4.67
2022-10-19T14:14:59.730Z,5.37
2022-10-19T14:17:30.086Z,3.30
2022-10-19T14:19:59.176Z,4.60
2022-10-19T14:22:29.913Z,4.37
2022-10-19T14:25:01.266Z,2.87
2022-10-19T14:27:30.990Z,4.30
2022-10-19T14:29:58.725Z,3.10
2022-10-19T14:32:27.865Z,3.40
2022-10-19T14:34:58.521Z,2.70
2022-10-19T14:37:27.646Z,4.30
2022-10-19T14:40:00.104Z,4.50
2022-10-19T14:42:37.980Z,4.23
2022-10-19T14:45:07.487Z,3.10
2022-10-19T14:47:35.002Z,4.23
2022-10-19T14:50:03.542Z,7.27
2022-10-19T14:52:33.799Z,3.77
2022-10-19T14:55:02.843Z,3.07
2022-10-19T14:57:32.916Z,4.03
2022-10-19T15:00:02.825Z,4.03
2022-10-19T15:02:31.583Z,5.55
2022-10-19T15:05:00.686Z,4.83
2022-10-19T15:07:31.342Z,4.73
2022-10-19T15:10:00.465Z,7.33
2022-10-19T15:12:29.479Z,4.90
2022-10-19T15:14:58.229Z,3.57
2022-10-19T15:17:28.915Z,3.67
2022-10-19T15:19:58.449Z,3.30
2022-10-19T15:22:38.414Z,4.27
2022-10-19T15:25:24.055Z,4.83
2022-10-19T15:27:53.594Z,4.27
2022-10-19T15:30:25.391Z,4.70
2022-10-19T15:32:57.271Z,4.53
2022-10-19T15:35:30.523Z,5.30
2022-10-19T15:38:01.588Z,4.50
2022-10-19T15:40:32.345Z,3.80
2022-10-19T15:42:59.992Z,6.87
2022-10-19T15:45:34.511Z,4.77
2022-10-19T15:48:22.053Z,3.97
2022-10-19T15:50:51.964Z,4.90
2022-10-19T15:53:20.063Z,5.77
2022-10-19T15:55:47.527Z,4.10
2022-10-19T15:58:15.367Z,6.40
2022-10-19T16:00:43.234Z,5.43
2022-10-19T16:03:10.843Z,3.70
2022-10-19T16:05:38.630Z,4.43
2022-10-19T16:08:10.171Z,6.23
2022-10-19T16:10:39.957Z,4.23
2022-10-19T16:13:07.504Z,5.80
2022-10-19T16:15:35.042Z,4.13
2022-10-19T16:18:02.637Z,4.60
2022-10-19T16:20:30.479Z,6.53
2022-10-19T16:22:58.113Z,4.53
2022-10-19T16:25:28.823Z,3.90
2022-10-19T16:27:56.421Z,5.37
2022-10-19T16:30:24.385Z,6.23
2022-10-19T16:32:52.001Z,8.57
2022-10-19T16:35:19.553Z,9.13
2022-10-19T16:37:47.100Z,7.03
2022-10-19T16:40:14.786Z,7.23
2022-10-19T16:42:43.726Z,10.13
2022-10-19T16:45:11.926Z,6.90
2022-10-19T16:47:39.551Z,5.63
2022-10-19T16:50:07.391Z,4.03
2022-10-19T16:52:35.241Z,6.40
2022-10-19T16:55:02.978Z,5.03
2022-10-19T16:57:30.618Z,9.77
2022-10-19T16:59:59.549Z,6.33
2022-10-19T17:02:27.188Z,5.30
2022-10-19T17:04:54.741Z,7.70
2022-10-19T17:07:22.331Z,5.53
2022-10-19T17:09:54.489Z,5.27
2022-10-19T17:12:22.476Z,5.40
2022-10-19T17:14:51.309Z,6.00
2022-10-19T17:17:20.948Z,5.93
2022-10-19T17:19:48.835Z,5.77
2022-10-19T17:22:16.742Z,8.50
2022-10-19T17:24:46.315Z,6.70
2022-10-19T17:27:14.204Z,8.03
2022-10-19T17:29:41.822Z,6.60
2022-10-19T17:32:09.558Z,8.83
2022-10-19T17:34:38.509Z,10.63
2022-10-19T17:37:06.379Z,7.53
2022-10-19T17:39:33.998Z,6.67
2022-10-19T17:42:03.288Z,11.77
2022-10-19T17:44:31.555Z,8.80
2022-10-19T17:46:59.329Z,8.93
2022-10-19T17:49:26.912Z,6.83
2022-10-19T17:51:55.867Z,8.63
2022-10-19T17:54:23.471Z,8.70
2022-10-19T17:56:51.055Z,9.00
2022-10-19T17:59:29.922Z,11.43
2022-10-19T18:02:02.616Z,10.47
2022-10-19T18:04:30.319Z,8.23
2022-10-19T18:06:59.325Z,8.50
2022-10-19T18:09:26.916Z,9.83
2022-10-19T18:11:54.474Z,10.73
2022-10-19T18:14:22.014Z,8.50
2022-10-19T18:16:50.330Z,11.50
2022-10-19T18:19:17.837Z,11.83
2022-10-19T18:21:46.364Z,9.33
2022-10-19T18:24:19.517Z,9.80
2022-10-19T18:26:47.246Z,11.67
2022-10-19T18:29:18.302Z,10.63
2022-10-19T18:31:49.114Z,11.90
2022-10-19T18:34:16.947Z,9.40
2022-10-19T18:36:44.904Z,11.00
2022-10-19T18:39:13.242Z,10.30
2022-10-19T18:41:42.221Z,9.73
2022-10-19T18:44:12.471Z,14.97
2022-10-19T18:46:40.540Z,11.77
2022-10-19T18:49:09.357Z,9.33
2022-10-19T18:51:37.473Z,10.30
2022-10-19T18:54:05.358Z,9.93
2022-10-19T18:56:33.357Z,9.10
2022-10-19T18:59:02.368Z,10.23
2022-10-19T19:01:30.842Z,10.20
2022-10-19T19:04:00.680Z,7.87
2022-10-19T19:06:29.959Z,7.80
2022-10-19T19:08:58.149Z,10.37
2022-10-19T19:11:26.933Z,9.13
2022-10-19T19:13:55.530Z,10.97
2022-10-19T19:16:25.083Z,8.90
2022-10-19T19:18:52.709Z,9.33
2022-10-19T19:21:21.208Z,9.97
2022-10-19T19:23:49.427Z,9.03
2022-10-19T19:26:17.363Z,8.17
2022-10-19T19:28:47.637Z,9.67
2022-10-19T19:31:18.506Z,9.83
2022-10-19T19:33:48.338Z,7.53
2022-10-19T19:36:17.253Z,7.03
2022-10-19T19:38:45.159Z,9.73
2022-10-19T19:41:13.943Z,11.97
2022-10-19T19:43:42.488Z,8.30
2022-10-19T19:46:12.806Z,9.63
2022-10-19T19:48:41.233Z,8.73
2022-10-19T19:51:10.468Z,12.70
2022-10-19T19:53:39.096Z,8.53
2022-10-19T19:56:07.132Z,11.17
2022-10-19T19:58:34.839Z,9.07
2022-10-19T20:01:12.153Z,11.60
2022-10-19T20:03:41.244Z,11.57
2022-10-19T20:06:10.516Z,9.73
2022-10-19T20:08:38.268Z,7.50
2022-10-19T20:11:07.498Z,9.03
2022-10-19T20:13:35.507Z,12.23
2022-10-19T20:16:07.648Z,8.30
2022-10-19T20:18:35.266Z,6.43
2022-10-19T20:21:03.223Z,9.03
2022-10-19T20:23:32.556Z,9.17
2022-10-19T20:26:00.249Z,7.70
2022-10-19T20:28:28.223Z,11.00
2022-10-19T20:31:02.386Z,8.50
2022-10-19T20:33:30.458Z,9.67
2022-10-19T20:35:58.064Z,11.47
2022-10-19T20:38:27.609Z,8.03
2022-10-19T20:40:56.601Z,9.30
2022-10-19T20:43:24.182Z,8.30
2022-10-19T20:45:51.732Z,8.30
2022-10-19T20:48:19.309Z,10.53
2022-10-19T20:50:46.819Z,9.30
2022-10-19T20:53:14.404Z,8.53
2022-10-19T20:55:41.989Z,10.10
2022-10-19T20:58:10.900Z,12.83
2022-10-19T21:00:38.481Z,8.73
2022-10-19T21:03:08.422Z,11.03
2022-10-19T21:05:38.582Z,10.63
2022-10-19T21:10:35.783Z,7.47
2022-10-19T21:13:03.359Z,9.43
2022-10-19T21:15:32.244Z,10.30
2022-10-19T21:17:59.735Z,7.90
2022-10-19T21:20:27.307Z,8.83
2022-10-19T21:22:54.830Z,7.07
2022-10-19T21:25:22.436Z,7.70
2022-10-19T21:27:52.455Z,9.70
2022-10-19T21:30:19.898Z,9.33
2022-10-19T21:32:49.816Z,8.63
2022-10-19T21:35:17.336Z,9.83
2022-10-19T21:37:44.850Z,9.63
2022-10-19T21:40:12.479Z,8.07
2022-10-19T21:42:40.041Z,9.97
2022-10-19T21:45:28.749Z,8.30
2022-10-19T21:47:57.060Z,7.53
2022-10-19T21:50:24.549Z,13.17
2022-10-19T21:52:52.029Z,14.17
2022-10-19T21:55:19.558Z,11.00
2022-10-19T21:57:47.113Z,9.77
2022-10-19T22:00:14.983Z,8.13
2022-10-19T22:02:42.440Z,8.13
2022-10-19T22:05:11.371Z,7.70
2022-10-19T22:07:38.830Z,7.37
2022-10-19T22:10:06.620Z,7.80
2022-10-19T22:12:34.435Z,8.50
2022-10-19T22:15:02.209Z,9.50
2022-10-19T22:17:29.773Z,9.87
2022-10-19T22:19:57.674Z,8.70
2022-10-19T22:22:26.506Z,9.23
2022-10-19T22:24:54.487Z,8.37
2022-10-19T22:27:21.961Z,8.10
2022-10-19T22:29:49.457Z,10.17
2022-10-19T22:32:17.010Z,7.20
2022-10-19T22:34:44.501Z,7.87
2022-10-19T22:37:11.959Z,8.77
2022-10-19T22:42:09.609Z,13.23
2022-10-19T22:44:37.272Z,9.07
2022-10-19T22:47:05.482Z,9.63
2022-10-19T22:49:33.820Z,7.90
2022-10-19T22:52:01.356Z,11.40
2022-10-19T22:54:28.865Z,9.97
2022-10-19T22:56:57.974Z,9.77
2022-10-19T22:59:25.521Z,11.23
2022-10-19T23:01:53.074Z,7.80
2022-10-19T23:04:21.186Z,9.07
2022-10-19T23:06:48.741Z,9.03
2022-10-19T23:09:16.268Z,12.47
2022-10-19T23:11:43.734Z,7.93
2022-10-19T23:14:12.618Z,9.17
2022-10-19T23:16:40.120Z,8.80
2022-10-19T23:19:07.677Z,9.47
2022-10-19T23:21:35.225Z,8.73
2022-10-19T23:24:02.714Z,7.10
2022-10-19T23:26:30.183Z,7.10
2022-10-19T23:28:57.687Z,7.67
2022-10-19T23:31:29.932Z,7.67
2022-10-19T23:33:57.411Z,9.40
2022-10-19T23:36:26.773Z,6.93
2022-10-19T23:38:54.903Z,7.33
2022-10-19T23:41:22.813Z,6.77
2022-10-19T23:43:50.539Z,8.07
2022-10-19T23:46:18.032Z,7.00
2022-10-19T23:48:46.924Z,6.33
2022-10-19T23:51:15.660Z,5.80
2022-10-19T23:53:43.999Z,6.63
2022-10-19T23:56:13.040Z,9.47
2022-10-19T23:58:40.503Z,6.47
